createdAt,value
2019-02-11T00:00:36.561Z,98951.78
2019-02-11T00:03:07.804Z,98970.96
2019-02-11T00:05:39.021Z,98978.23
2019-02-11T00:08:10.196Z,98980.02
2019-02-11T00:10:41.346Z,98981.00
2019-02-11T00:13:12.493Z,98984.55
2019-02-11T00:15:43.664Z,98999.45
2019-02-11T00:18:14.808Z,99003.05
2019-02-11T00:20:46.034Z,99005.53
2019-02-11T00:23:17.343Z,99016.13
2019-02-11T00:25:48.610Z,99030.84
2019-02-11T00:28:19.830Z,99019.98
2019-02-11T00:30:51.197Z,99016.48
2019-02-11T00:33:22.454Z,99020.95
2019-02-11T00:35:53.675Z,99023.28
2019-02-11T00:38:24.923Z,99035.12
2019-02-11T00:40:56.093Z,99047.45
2019-02-11T00:43:28.233Z,99049.66
2019-02-11T00:45:59.424Z,99061.55
2019-02-11T00:48:30.569Z,99051.40
2019-02-11T00:51:02.857Z,99048.53
2019-02-11T00:53:34.061Z,99070.37
2019-02-11T00:56:05.253Z,99084.08
2019-02-11T00:58:36.399Z,99070.55
2019-02-11T01:01:07.576Z,99089.92
2019-02-11T01:03:38.948Z,99104.27
2019-02-11T01:06:10.122Z,99101.08
2019-02-11T01:08:41.337Z,99096.23
2019-02-11T01:11:12.578Z,99123.53
2019-02-11T01:13:43.773Z,99152.92
2019-02-11T01:16:14.989Z,99145.48
2019-02-11T01:18:46.183Z,99157.89
2019-02-11T01:21:17.329Z,99171.04
2019-02-11T01:23:48.500Z,99185.55
2019-02-11T01:26:19.653Z,99181.32
2019-02-11T01:28:50.797Z,99188.80
2019-02-11T01:31:21.918Z,99198.41
2019-02-11T01:33:53.148Z,99227.11
2019-02-11T01:36:24.326Z,99209.36
2019-02-11T01:38:55.523Z,99224.18
2019-02-11T01:41:26.776Z,99222.05
2019-02-11T01:43:57.960Z,99231.22
2019-02-11T01:46:29.184Z,99257.96
2019-02-11T01:49:00.350Z,99262.37
2019-02-11T01:51:31.623Z,99275.45
2019-02-11T01:54:02.807Z,99309.88
2019-02-11T01:56:33.982Z,99282.54
2019-02-11T01:59:05.210Z,99278.30
2019-02-11T02:01:36.406Z,99276.63
2019-02-11T02:04:07.596Z,99291.05
2019-02-11T02:06:38.752Z,99316.27
2019-02-11T02:09:09.942Z,99321.98
2019-02-11T02:11:41.627Z,99340.20
2019-02-11T02:14:12.804Z,99327.59
2019-02-11T02:16:44.025Z,99322.45
2019-02-11T02:19:15.153Z,99327.25
2019-02-11T02:21:46.330Z,99355.47
2019-02-11T02:24:17.582Z,99366.79
2019-02-11T02:26:48.752Z,99363.21
2019-02-11T02:29:19.970Z,99368.49
2019-02-11T02:31:51.234Z,99349.46
2019-02-11T02:34:22.553Z,99382.42
2019-02-11T02:36:53.987Z,99402.85
2019-02-11T02:39:25.302Z,99397.72
2019-02-11T02:41:56.565Z,99389.50
2019-02-11T02:44:27.944Z,99401.69
2019-02-11T02:46:59.235Z,99414.39
2019-02-11T02:49:30.488Z,99420.50
2019-02-11T02:52:01.779Z,99424.01
2019-02-11T02:54:33.127Z,99424.55
2019-02-11T02:57:04.361Z,99440.68
2019-02-11T02:59:35.645Z,99438.08
2019-02-11T03:02:07.052Z,99468.69
2019-02-11T03:04:38.376Z,99458.74
2019-02-11T03:07:09.707Z,99478.93
2019-02-11T03:09:40.953Z,99476.76
2019-02-11T03:12:12.213Z,99481.72
2019-02-11T03:14:43.475Z,99493.77
2019-02-11T03:17:14.733Z,99492.78
2019-02-11T03:19:46.038Z,99492.64
2019-02-11T03:22:17.200Z,99500.45
2019-02-11T03:24:48.492Z,99510.30
2019-02-11T03:27:19.690Z,99511.52
2019-02-11T03:29:50.984Z,99524.54
2019-02-11T03:32:22.261Z,99525.77
2019-02-11T03:34:53.502Z,99540.09
2019-02-11T03:37:24.791Z,99544.91
2019-02-11T03:39:56.155Z,99544.00
2019-02-11T03:42:27.455Z,99563.20
2019-02-11T03:44:59.813Z,99578.43
2019-02-11T03:47:31.147Z,99572.07
2019-02-11T03:50:02.565Z,99581.69
2019-02-11T03:52:33.820Z,99592.59
2019-02-11T03:55:05.120Z,99590.81
2019-02-11T03:57:36.391Z,99586.55
2019-02-11T04:00:08.464Z,99588.83
2019-02-11T04:02:39.713Z,99597.15
2019-02-11T04:05:10.922Z,99602.03
2019-02-11T04:07:42.181Z,99603.02
2019-02-11T04:10:13.408Z,99609.60
2019-02-11T04:12:44.854Z,99619.70
2019-02-11T04:15:16.112Z,99633.28
2019-02-11T04:17:48.441Z,99632.88
2019-02-11T04:20:19.675Z,99640.38
2019-02-11T04:22:50.915Z,99660.81
2019-02-11T04:25:22.466Z,99658.69
2019-02-11T04:27:53.689Z,99667.01
2019-02-11T04:30:24.949Z,99673.99
2019-02-11T04:32:56.361Z,99673.52
2019-02-11T04:35:27.569Z,99670.56
2019-02-11T04:37:58.844Z,99675.45
2019-02-11T04:40:30.080Z,99708.24
2019-02-11T04:43:01.498Z,99682.66
2019-02-11T04:45:32.752Z,99695.36
2019-02-11T04:48:04.076Z,99691.93
2019-02-11T04:50:35.310Z,99709.84
2019-02-11T04:53:06.813Z,99710.03
2019-02-11T04:55:38.141Z,99721.84
2019-02-11T04:58:09.551Z,99734.16
2019-02-11T05:00:40.859Z,99735.09
2019-02-11T05:03:12.689Z,99734.30
2019-02-11T05:05:44.067Z,99744.80
2019-02-11T05:08:15.330Z,99744.88
2019-02-11T05:10:46.605Z,99745.87
2019-02-11T05:13:17.860Z,99751.66
2019-02-11T05:15:49.171Z,99756.45
2019-02-11T05:18:20.616Z,99770.39
2019-02-11T05:20:51.815Z,99771.45
2019-02-11T05:23:23.059Z,99769.42
2019-02-11T05:25:54.358Z,99780.75
2019-02-11T05:28:25.627Z,99781.31
2019-02-11T05:30:56.877Z,99811.37
2019-02-11T05:33:28.527Z,99793.23
2019-02-11T05:35:59.830Z,99791.17
2019-02-11T05:38:31.363Z,99801.28
2019-02-11T05:41:02.781Z,99808.78
2019-02-11T05:43:34.054Z,99806.65
2019-02-11T05:46:05.289Z,99820.67
2019-02-11T05:48:36.526Z,99822.88
2019-02-11T05:51:07.756Z,99829.40
2019-02-11T05:53:39.023Z,99829.91
2019-02-11T05:56:10.310Z,99824.26
2019-02-11T05:58:41.663Z,99845.12
2019-02-11T06:01:12.969Z,99848.23
2019-02-11T06:03:44.282Z,99849.55
2019-02-11T06:06:15.608Z,99853.53
2019-02-11T06:08:47.038Z,99865.27
2019-02-11T06:11:18.412Z,99865.66
2019-02-11T06:13:49.675Z,99885.22
2019-02-11T06:16:20.954Z,99866.57
2019-02-11T06:18:52.178Z,99882.30
2019-02-11T06:21:23.505Z,99893.71
2019-02-11T06:23:54.777Z,99893.71
2019-02-11T06:26:26.108Z,99890.20
2019-02-11T06:28:57.357Z,99898.02
2019-02-11T06:31:28.700Z,99899.33
2019-02-11T06:33:59.967Z,99909.36
2019-02-11T06:36:31.448Z,99925.60
2019-02-11T06:39:02.745Z,99918.48
2019-02-11T06:41:34.132Z,99927.30
2019-02-11T06:44:05.379Z,99925.09
2019-02-11T06:46:36.631Z,99934.14
2019-02-11T06:49:07.949Z,99938.95
2019-02-11T06:51:39.330Z,99940.14
2019-02-11T06:54:10.661Z,99955.41
2019-02-11T06:56:41.937Z,99944.65
2019-02-11T06:59:13.288Z,99971.13
2019-02-11T07:01:45.442Z,99967.22
2019-02-11T07:04:16.735Z,99974.56
2019-02-11T07:06:48.086Z,99971.64
2019-02-11T07:09:19.327Z,99986.46
2019-02-11T07:11:50.588Z,99985.16
2019-02-11T07:14:21.931Z,99995.59
2019-02-11T07:16:53.312Z,100006.93
2019-02-11T07:19:24.571Z,100000.81
2019-02-11T07:21:55.858Z,100009.94
2019-02-11T07:24:27.149Z,100004.33
2019-02-11T07:26:59.584Z,100020.37
2019-02-11T07:29:31.079Z,100018.83
2019-02-11T07:32:02.395Z,100021.44
2019-02-11T07:34:33.798Z,100035.08
2019-02-11T07:37:05.116Z,100031.48
2019-02-11T07:39:36.375Z,100040.02
2019-02-11T07:42:20.998Z,100047.45
2019-02-11T07:44:57.333Z,100055.86
2019-02-11T07:47:28.605Z,100057.17
2019-02-11T07:49:59.939Z,100060.17
2019-02-11T07:52:31.220Z,100069.22
2019-02-11T07:55:02.541Z,100060.00
2019-02-11T07:57:33.953Z,100074.83
2019-02-11T08:00:05.438Z,100082.73
2019-02-11T08:02:36.851Z,100081.04
2019-02-11T08:05:08.637Z,100082.73
2019-02-11T08:07:39.892Z,100090.25
2019-02-11T08:10:11.175Z,100102.98
2019-02-11T08:12:42.844Z,100117.02
2019-02-11T08:15:14.196Z,100114.89
2019-02-11T08:17:46.856Z,100122.52
2019-02-11T08:20:18.239Z,100134.42
2019-02-11T08:22:49.556Z,100128.89
2019-02-11T08:25:20.767Z,100128.27
2019-02-11T08:27:52.203Z,100141.87
2019-02-11T08:30:23.396Z,100152.08
2019-02-11T08:32:54.688Z,100163.59
2019-02-11T08:35:25.910Z,100178.06
2019-02-11T08:37:57.127Z,100162.41
2019-02-11T08:40:28.308Z,100179.53
2019-02-11T08:42:59.580Z,100189.06
2019-02-11T08:45:30.843Z,100199.11
2019-02-11T08:48:02.033Z,100200.81
2019-02-11T08:50:33.259Z,100202.94
2019-02-11T08:53:04.518Z,100198.72
2019-02-11T08:55:35.702Z,100209.23
2019-02-11T08:58:06.926Z,100206.23
2019-02-11T09:00:38.207Z,100209.32
2019-02-11T09:03:09.441Z,100217.75
2019-02-11T09:05:41.660Z,100216.92
2019-02-11T09:08:12.805Z,100217.69
2019-02-11T09:10:43.975Z,100240.95
2019-02-11T09:13:15.187Z,100239.93
2019-02-11T09:15:46.391Z,100261.89
2019-02-11T09:18:17.588Z,100246.14
2019-02-11T09:20:48.794Z,100250.86
2019-02-11T09:23:20.019Z,100260.70
2019-02-11T09:25:51.475Z,100273.67
2019-02-11T09:28:22.706Z,100286.72
2019-02-11T09:30:54.012Z,100282.41
2019-02-11T09:33:25.230Z,100285.34
2019-02-11T09:35:56.523Z,100283.55
2019-02-11T09:38:27.735Z,100302.61
2019-02-11T09:40:59.015Z,100300.00
2019-02-11T09:43:30.267Z,100313.14
2019-02-11T09:46:03.939Z,100315.67
2019-02-11T09:48:35.468Z,100327.93
2019-02-11T09:51:07.208Z,100336.33
2019-02-11T09:53:38.434Z,100334.23
2019-02-11T09:56:09.615Z,100339.03
2019-02-11T09:58:40.779Z,100349.38
2019-02-11T10:01:12.276Z,100340.45
2019-02-11T10:03:43.414Z,100343.32
2019-02-11T10:06:14.644Z,100360.16
2019-02-11T10:08:46.972Z,100354.00
2019-02-11T10:11:18.229Z,100358.30
2019-02-11T10:13:49.408Z,100362.15
2019-02-11T10:16:22.267Z,100372.89
2019-02-11T10:18:53.835Z,100366.13
2019-02-11T10:21:25.180Z,100366.13
2019-02-11T10:23:56.492Z,100383.80
2019-02-11T10:26:27.745Z,100392.52
2019-02-11T10:28:58.994Z,100393.81
2019-02-11T10:31:30.108Z,100382.37
2019-02-11T10:34:01.300Z,100394.64
2019-02-11T10:36:33.592Z,100404.27
2019-02-11T10:39:05.987Z,100436.14
2019-02-11T10:41:37.214Z,100421.34
2019-02-11T10:44:08.392Z,100421.25
2019-02-11T10:46:39.587Z,100424.77
2019-02-11T10:49:10.817Z,100424.47
2019-02-11T10:51:43.701Z,100418.92
2019-02-11T10:54:15.090Z,100435.38
2019-02-11T10:56:47.370Z,100441.17
2019-02-11T10:59:18.596Z,100455.14
2019-02-11T11:01:49.812Z,100461.28
2019-02-11T11:04:21.033Z,100461.91
2019-02-11T11:06:52.224Z,100473.41
2019-02-11T11:09:23.423Z,100471.41
2019-02-11T11:11:54.637Z,100472.34
2019-02-11T11:14:25.982Z,100464.23
2019-02-11T11:16:57.126Z,100468.47
2019-02-11T11:19:28.331Z,100487.45
2019-02-11T11:21:59.612Z,100504.91
2019-02-11T11:24:30.765Z,100501.00
2019-02-11T11:27:01.932Z,100508.95
2019-02-11T11:29:34.354Z,100508.13
2019-02-11T11:32:05.640Z,100520.58
2019-02-11T11:34:36.969Z,100525.98
2019-02-11T11:37:08.186Z,100528.89
2019-02-11T11:39:39.383Z,100549.49
2019-02-11T11:42:11.845Z,100532.98
2019-02-11T11:44:43.206Z,100547.00
2019-02-11T11:47:14.500Z,100538.41
2019-02-11T11:49:45.714Z,100550.89
2019-02-11T11:52:16.940Z,100541.66
2019-02-11T11:54:48.135Z,100544.52
2019-02-11T11:57:19.397Z,100556.42
2019-02-11T11:59:51.985Z,100589.50
2019-02-11T12:02:23.118Z,100558.19
2019-02-11T12:04:54.284Z,100568.86
2019-02-11T12:07:25.517Z,100586.34
2019-02-11T12:09:56.698Z,100580.00
2019-02-11T12:12:27.986Z,100576.76
2019-02-11T12:14:59.245Z,100585.77
2019-02-11T12:17:30.644Z,100575.67
2019-02-11T12:20:01.839Z,100579.13
2019-02-11T12:22:33.188Z,100574.73
2019-02-11T12:25:04.610Z,100594.94
2019-02-11T12:27:35.890Z,100587.91
2019-02-11T12:30:09.850Z,100617.19
2019-02-11T12:32:41.027Z,100595.53
2019-02-11T12:35:13.186Z,100595.22
2019-02-11T12:37:44.495Z,100605.38
2019-02-11T12:40:15.685Z,100606.13
2019-02-11T12:42:46.829Z,100624.63
2019-02-11T12:45:19.821Z,100633.61
2019-02-11T12:47:51.031Z,100635.04
2019-02-11T12:50:22.270Z,100640.80
2019-02-11T12:52:53.627Z,100649.34
2019-02-11T12:55:24.939Z,100655.61
2019-02-11T12:57:56.190Z,100656.36
2019-02-11T13:00:27.457Z,100650.28
2019-02-11T13:02:58.699Z,100651.43
2019-02-11T13:05:43.906Z,100643.89
2019-02-11T13:08:02.944Z,100648.33
2019-02-11T13:10:34.233Z,100651.75
2019-02-11T13:13:07.021Z,100669.46
2019-02-11T13:15:58.552Z,100667.44
2019-02-11T13:18:11.555Z,100672.23
2019-02-11T13:20:42.949Z,100689.85
2019-02-11T13:23:14.193Z,100693.00
2019-02-11T13:25:45.635Z,100706.27
2019-02-11T13:28:16.870Z,100740.30
2019-02-11T13:30:48.110Z,100728.97
2019-02-11T13:33:19.314Z,100742.16
2019-02-11T13:35:50.603Z,100764.31
2019-02-11T13:38:21.798Z,100772.20
2019-02-11T13:40:52.938Z,100778.19
2019-02-11T13:43:24.371Z,100800.53
2019-02-11T13:45:55.758Z,100781.62
2019-02-11T13:48:27.160Z,100800.14
2019-02-11T13:50:58.464Z,100805.55
2019-02-11T13:53:29.699Z,100809.95
2019-02-11T13:56:04.748Z,100813.88
2019-02-11T13:58:34.087Z,100813.69
2019-02-11T14:01:07.207Z,100820.11
2019-02-11T14:03:38.382Z,100815.41
2019-02-11T14:06:09.580Z,100832.30
2019-02-11T14:08:40.884Z,100832.16
2019-02-11T14:11:12.145Z,100832.06
2019-02-11T14:14:00.610Z,100838.20
2019-02-11T14:16:16.553Z,100848.67
2019-02-11T14:18:47.691Z,100862.92
2019-02-11T14:21:18.942Z,100861.70
2019-02-11T14:23:50.212Z,100865.42
2019-02-11T14:26:21.482Z,100860.75
2019-02-11T14:28:52.733Z,100874.03
2019-02-11T14:31:24.295Z,100880.77
2019-02-11T14:33:55.602Z,100880.82
2019-02-11T14:36:27.225Z,100893.71
2019-02-11T14:38:58.857Z,100905.91
2019-02-11T14:41:30.399Z,100897.14
2019-02-11T14:44:01.825Z,100898.39
2019-02-11T14:46:33.281Z,100905.70
2019-02-11T14:49:04.761Z,100912.81
2019-02-11T14:51:36.410Z,100916.75
2019-02-11T14:54:07.869Z,100933.17
2019-02-11T14:56:39.316Z,100937.80
2019-02-11T14:59:10.827Z,100945.56
2019-02-11T15:01:42.020Z,100950.98
2019-02-11T15:04:13.306Z,100963.03
2019-02-11T15:06:44.508Z,100959.75
2019-02-11T15:09:16.165Z,100962.73
2019-02-11T15:11:47.312Z,100989.54
2019-02-11T15:14:18.653Z,100978.22
2019-02-11T15:16:49.786Z,101000.63
2019-02-11T15:19:21.082Z,101004.85
2019-02-11T15:21:52.312Z,101001.09
2019-02-11T15:24:23.698Z,101014.94
2019-02-11T15:26:54.856Z,101010.00
2019-02-11T15:29:26.103Z,101023.20
2019-02-11T15:31:57.349Z,101014.73
2019-02-11T15:34:28.528Z,101021.14
2019-02-11T15:36:59.841Z,101012.03
2019-02-11T15:39:31.198Z,101025.28
2019-02-11T15:42:02.577Z,101031.78
2019-02-11T15:44:34.200Z,101042.38
2019-02-11T15:47:06.289Z,101039.56
2019-02-11T15:49:37.575Z,101038.83
2019-02-11T15:52:08.834Z,101050.16
2019-02-11T15:54:40.129Z,101049.80
2019-02-11T15:57:11.419Z,101078.98
2019-02-11T15:59:42.666Z,101070.69
2019-02-11T16:02:14.054Z,101089.30
2019-02-11T16:04:46.330Z,101093.29
2019-02-11T16:07:18.371Z,101089.05
2019-02-11T16:09:49.820Z,101096.91
2019-02-11T16:12:20.955Z,101107.02
2019-02-11T16:14:52.110Z,101113.99
2019-02-11T16:17:23.282Z,101122.86
2019-02-11T16:19:54.597Z,101133.75
2019-02-11T16:22:26.021Z,101136.13
2019-02-11T16:24:57.379Z,101144.12
2019-02-11T16:27:28.880Z,101147.39
2019-02-11T16:30:00.263Z,101151.89
2019-02-11T16:32:31.718Z,101153.84
2019-02-11T16:35:02.867Z,101164.06
2019-02-11T16:37:34.074Z,101172.92
2019-02-11T16:40:06.515Z,101181.55
2019-02-11T16:42:37.891Z,101184.81
2019-02-11T16:45:10.064Z,101201.53
2019-02-11T16:47:41.195Z,101197.41
2019-02-11T16:50:12.416Z,101199.36
2019-02-11T16:52:44.048Z,101212.66
2019-02-11T16:55:15.418Z,101223.71
2019-02-11T16:57:46.646Z,101231.30
2019-02-11T17:00:18.363Z,101238.20
2019-02-11T17:02:49.479Z,101259.47
2019-02-11T17:05:21.195Z,101260.13
2019-02-11T17:07:52.425Z,101271.20
2019-02-11T17:10:23.606Z,101276.84
2019-02-11T17:12:54.720Z,101282.70
2019-02-11T17:15:26.091Z,101290.78
2019-02-11T17:17:57.340Z,101302.27
2019-02-11T17:20:28.613Z,101297.72
2019-02-11T17:22:59.971Z,101309.82
2019-02-11T17:25:31.227Z,101310.12
2019-02-11T17:28:02.558Z,101333.58
2019-02-11T17:30:33.922Z,101343.72
2019-02-11T17:33:05.318Z,101354.41
2019-02-11T17:35:36.566Z,101364.33
2019-02-11T17:38:07.808Z,101377.50
2019-02-11T17:40:39.045Z,101383.73
2019-02-11T17:43:10.191Z,101383.88
2019-02-11T17:45:41.449Z,101397.97
2019-02-11T17:48:12.731Z,101401.47
2019-02-11T17:50:43.995Z,101400.84
2019-02-11T17:53:15.397Z,101408.00
2019-02-11T17:55:46.661Z,101406.08
2019-02-11T17:58:17.974Z,101413.34
2019-02-11T18:00:52.957Z,101409.70
2019-02-11T18:03:24.200Z,101418.69
2019-02-11T18:05:55.388Z,101418.19
2019-02-11T18:08:26.614Z,101452.80
2019-02-11T18:10:57.873Z,101447.09
2019-02-11T18:13:29.151Z,101444.75
2019-02-11T18:16:00.399Z,101452.44
2019-02-11T18:18:31.627Z,101463.48
2019-02-11T18:21:02.968Z,101479.37
2019-02-11T18:23:34.197Z,101493.19
2019-02-11T18:26:05.491Z,101496.80
2019-02-11T18:28:36.767Z,101501.76
2019-02-11T18:31:07.935Z,101510.75
2019-02-11T18:33:39.211Z,101513.61
2019-02-11T18:36:10.590Z,101534.94
2019-02-11T18:38:42.049Z,101534.69
2019-02-11T18:41:13.291Z,101540.14
2019-02-11T18:43:44.449Z,101541.45
2019-02-11T18:46:15.706Z,101553.41
2019-02-11T18:48:48.061Z,101543.50
2019-02-11T18:51:19.190Z,101561.21
2019-02-11T18:53:50.449Z,101562.77
2019-02-11T18:56:21.795Z,101576.03
2019-02-11T18:58:52.988Z,101574.47
2019-02-11T19:01:25.180Z,101572.63
2019-02-11T19:03:56.516Z,101587.60
2019-02-11T19:06:27.737Z,101598.64
2019-02-11T19:08:59.085Z,101595.48
2019-02-11T19:11:30.348Z,101609.55
2019-02-11T19:14:01.516Z,101612.02
2019-02-11T19:16:32.766Z,101620.74
2019-02-11T19:19:06.298Z,101615.92
2019-02-11T19:21:37.643Z,101625.27
2019-02-11T19:24:09.089Z,101618.88
2019-02-11T19:26:40.283Z,101623.58
2019-02-11T19:29:11.532Z,101616.39
2019-02-11T19:31:43.234Z,101612.73
2019-02-11T19:34:14.571Z,101618.19
2019-02-11T19:36:45.840Z,101616.22
2019-02-11T19:39:17.071Z,101620.91
2019-02-11T19:41:48.749Z,101621.28
2019-02-11T19:44:20.107Z,101622.05
2019-02-11T19:46:51.467Z,101644.05
2019-02-11T19:49:23.363Z,101623.30
2019-02-11T19:51:54.905Z,101626.58
2019-02-11T19:54:26.074Z,101637.77
2019-02-11T19:56:58.606Z,101643.22
2019-02-11T19:59:30.589Z,101648.67
2019-02-11T20:02:01.845Z,101648.67
2019-02-11T20:04:33.950Z,101653.19
2019-02-11T20:07:06.073Z,101655.41
2019-02-11T20:09:37.928Z,101658.02
2019-02-11T20:12:09.240Z,101663.59
2019-02-11T20:14:40.476Z,101662.53
2019-02-11T20:17:12.276Z,101665.24
2019-02-11T20:19:43.524Z,101671.36
2019-02-11T20:22:14.730Z,101686.18
2019-02-11T20:24:45.914Z,101683.20
2019-02-11T20:27:17.888Z,101686.83
2019-02-11T20:29:49.597Z,101703.50
2019-02-11T20:32:21.048Z,101684.75
2019-02-11T20:34:52.856Z,101687.34
2019-02-11T20:37:24.586Z,101682.14
2019-02-11T20:40:03.209Z,101693.34
2019-02-11T20:42:28.754Z,101704.38
2019-02-11T20:44:59.976Z,101711.02
2019-02-11T20:47:31.180Z,101711.84
2019-02-11T20:50:09.051Z,101725.90
2019-02-11T20:52:35.446Z,101728.02
2019-02-11T20:55:07.226Z,101730.89
2019-02-11T20:57:38.526Z,101739.23
2019-02-11T21:00:13.639Z,101737.15
2019-02-11T21:02:45.059Z,101741.19
2019-02-11T21:05:16.333Z,101733.38
2019-02-11T21:07:47.654Z,101744.71
2019-02-11T21:10:18.948Z,101746.80
2019-02-11T21:12:50.109Z,101753.68
2019-02-11T21:15:21.302Z,101757.95
2019-02-11T21:17:52.558Z,101758.75
2019-02-11T21:20:27.157Z,101763.13
2019-02-11T21:22:58.571Z,101763.13
2019-02-11T21:25:29.795Z,101764.30
2019-02-11T21:28:01.000Z,101775.08
2019-02-11T21:30:32.182Z,101773.64
2019-02-11T21:33:03.369Z,101779.77
2019-02-11T21:35:34.557Z,101776.75
2019-02-11T21:38:05.819Z,101777.91
2019-02-11T21:40:37.161Z,101780.28
2019-02-11T21:43:08.439Z,101779.91
2019-02-11T21:45:40.559Z,101776.75
2019-02-11T21:48:12.057Z,101787.56
2019-02-11T21:50:43.355Z,101790.68
2019-02-11T21:53:14.495Z,101803.31
2019-02-11T21:55:45.770Z,101809.57
2019-02-11T21:58:17.074Z,101803.58
2019-02-11T22:00:48.289Z,101805.19
2019-02-11T22:03:19.591Z,101807.80
2019-02-11T22:05:51.011Z,101806.32
2019-02-11T22:08:22.249Z,101810.77
2019-02-11T22:10:53.437Z,101817.52
2019-02-11T22:13:24.651Z,101833.87
2019-02-11T22:15:55.974Z,101821.27
2019-02-11T22:18:27.381Z,101816.45
2019-02-11T22:20:59.580Z,101805.53
2019-02-11T22:23:31.322Z,101821.14
2019-02-11T22:26:02.624Z,101824.49
2019-02-11T22:28:33.876Z,101827.47
2019-02-11T22:31:05.079Z,101824.12
2019-02-11T22:33:36.486Z,101836.98
2019-02-11T22:36:07.751Z,101839.72
2019-02-11T22:38:39.021Z,101850.13
2019-02-11T22:41:10.406Z,101841.02
2019-02-11T22:43:42.002Z,101840.64
2019-02-11T22:46:13.259Z,101846.36
2019-02-11T22:48:44.477Z,101854.55
2019-02-11T22:51:15.936Z,101864.57
2019-02-11T22:53:47.142Z,101876.52
2019-02-11T22:56:18.424Z,101867.95
2019-02-11T22:58:49.664Z,101877.58
2019-02-11T23:01:21.099Z,101899.92
2019-02-11T23:03:52.367Z,101894.72
2019-02-11T23:06:23.647Z,101895.64
2019-02-11T23:08:54.894Z,101899.55
2019-02-11T23:11:26.061Z,101895.27
2019-02-11T23:13:57.339Z,101899.92
2019-02-11T23:16:28.480Z,101890.30
2019-02-11T23:18:59.775Z,101894.95
2019-02-11T23:21:31.012Z,101896.80
2019-02-11T23:24:02.206Z,101893.38
2019-02-11T23:26:33.450Z,101893.14
2019-02-11T23:29:04.605Z,101902.24
2019-02-11T23:31:35.816Z,101895.73
2019-02-11T23:34:07.991Z,101905.36
2019-02-11T23:36:39.262Z,101904.98
2019-02-11T23:39:14.982Z,101914.23
2019-02-11T23:41:46.159Z,101921.42
2019-02-11T23:44:17.416Z,101922.86
2019-02-11T23:46:48.599Z,101928.58
2019-02-11T23:49:19.821Z,101926.91
2019-02-11T23:51:52.079Z,101944.50
2019-02-11T23:54:23.288Z,101941.90
2019-02-11T23:56:54.464Z,101944.50
2019-02-11T23:59:25.779Z,101947.10
